sensor_id;sensor_type;location;lat;lon;timestamp;pressure;altitude;pressure_sealevel;temperature;humidity
12219;BME280;6172;42.646;23.344;2024-03-23T00:53:57;94635.34;;;3.06;100.00
12219;BME280;6172;42.646;23.344;2024-03-23T00:56:23;94630.03;;;3.10;100.00
12219;BME280;6172;42.646;23.344;2024-03-23T00:58:50;94623.41;;;3.04;100.00
12219;BME280;6172;42.646;23.344;2024-03-23T01:01:16;94633.41;;;3.03;100.00
12219;BME280;6172;42.646;23.344;2024-03-23T01:03:43;94628.88;;;2.81;100.00
12219;BME280;6172;42.646;23.344;2024-03-23T01:06:11;94631.56;;;2.81;100.00
12219;BME280;6172;42.646;23.344;2024-03-23T01:08:38;94632.66;;;2.73;100.00
12219;BME280;6172;42.646;23.344;2024-03-23T01:11:04;94630.31;;;2.72;100.00
12219;BME280;6172;42.646;23.344;2024-03-23T01:13:32;94625.88;;;2.57;100.00
12219;BME280;6172;42.646;23.344;2024-03-23T01:15:58;94629.72;;;2.30;100.00
12219;BME280;6172;42.646;23.344;2024-03-23T01:18:25;94622.75;;;1.99;100.00
12219;BME280;6172;42.646;23.344;2024-03-23T01:20:52;94624.53;;;1.92;100.00
12219;BME280;6172;42.646;23.344;2024-03-23T01:23:20;94617.75;;;1.98;100.00
12219;BME280;6172;42.646;23.344;2024-03-23T01:25:51;94620.72;;;2.19;100.00
12219;BME280;6172;42.646;23.344;2024-03-23T01:28:18;94622.34;;;2.23;100.00
12219;BME280;6172;42.646;23.344;2024-03-23T01:30:44;94624.34;;;2.30;100.00
12219;BME280;6172;42.646;23.344;2024-03-23T01:33:12;94621.19;;;2.24;100.00
12219;BME280;6172;42.646;23.344;2024-03-23T01:35:38;94629.97;;;2.21;100.00
12219;BME280;6172;42.646;23.344;2024-03-23T01:38:05;94623.63;;;2.33;100.00
12219;BME280;6172;42.646;23.344;2024-03-23T01:40:33;94628.28;;;2.36;100.00
12219;BME280;6172;42.646;23.344;2024-03-23T01:43:04;94630.75;;;2.48;100.00
12219;BME280;6172;42.646;23.344;2024-03-23T01:45:31;94623.81;;;2.47;100.00
12219;BME280;6172;42.646;23.344;2024-03-23T01:47:58;94619.22;;;2.47;100.00
12219;BME280;6172;42.646;23.344;2024-03-23T01:50:25;94626.56;;;2.50;100.00
12219;BME280;6172;42.646;23.344;2024-03-23T01:52:53;94624.41;;;2.33;100.00
12219;BME280;6172;42.646;23.344;2024-03-23T01:55:19;94626.03;;;2.41;100.00
12219;BME280;6172;42.646;23.344;2024-03-23T01:57:48;94622.13;;;2.35;100.00
12219;BME280;6172;42.646;23.344;2024-03-23T02:00:14;94627.03;;;2.56;100.00
12219;BME280;6172;42.646;23.344;2024-03-23T02:02:43;94633.19;;;2.56;100.00
12219;BME280;6172;42.646;23.344;2024-03-23T02:05:10;94624.59;;;2.47;100.00
12219;BME280;6172;42.646;23.344;2024-03-23T02:07:39;94634.69;;;2.54;100.00
12219;BME280;6172;42.646;23.344;2024-03-23T02:10:06;94623.97;;;2.31;100.00
12219;BME280;6172;42.646;23.344;2024-03-23T02:12:35;94627.28;;;2.21;100.00
12219;BME280;6172;42.646;23.344;2024-03-23T02:15:03;94625.22;;;2.11;100.00
12219;BME280;6172;42.646;23.344;2024-03-23T02:17:31;94623.63;;;2.33;100.00
12219;BME280;6172;42.646;23.344;2024-03-23T02:19:57;94628.19;;;2.29;100.00
12219;BME280;6172;42.646;23.344;2024-03-23T02:22:24;94633.91;;;2.01;100.00
12219;BME280;6172;42.646;23.344;2024-03-23T02:24:52;94629.75;;;1.81;100.00
12219;BME280;6172;42.646;23.344;2024-03-23T02:27:20;94628.59;;;1.82;100.00
12219;BME280;6172;42.646;23.344;2024-03-23T02:29:46;94631.06;;;1.68;100.00
12219;BME280;6172;42.646;23.344;2024-03-23T02:32:13;94624.25;;;1.74;100.00
12219;BME280;6172;42.646;23.344;2024-03-23T02:34:39;94623.44;;;1.70;100.00
12219;BME280;6172;42.646;23.344;2024-03-23T02:37:10;94632.91;;;1.87;100.00
12219;BME280;6172;42.646;23.344;2024-03-23T02:39:37;94637.88;;;1.85;100.00
12219;BME280;6172;42.646;23.344;2024-03-23T02:42:05;94627.63;;;1.68;100.00
12219;BME280;6172;42.646;23.344;2024-03-23T02:44:31;94625.56;;;1.61;100.00
12219;BME280;6172;42.646;23.344;2024-03-23T02:46:58;94629.09;;;1.65;100.00
12219;BME280;6172;42.646;23.344;2024-03-23T02:49:25;94631.00;;;1.65;100.00
12219;BME280;6172;42.646;23.344;2024-03-23T02:51:52;94624.97;;;1.71;100.00
12219;BME280;6172;42.646;23.344;2024-03-23T02:54:18;94625.41;;;1.73;100.00
12219;BME280;6172;42.646;23.344;2024-03-23T02:56:45;94613.50;;;1.74;100.00
12219;BME280;6172;42.646;23.344;2024-03-23T02:59:12;94625.63;;;1.87;100.00
12219;BME280;6172;42.646;23.344;2024-03-23T03:01:39;94622.22;;;1.90;100.00
12219;BME280;6172;42.646;23.344;2024-03-23T03:04:05;94614.66;;;1.73;100.00
12219;BME280;6172;42.646;23.344;2024-03-23T03:06:32;94625.09;;;1.78;100.00
12219;BME280;6172;42.646;23.344;2024-03-23T03:08:58;94619.06;;;1.62;100.00
12219;BME280;6172;42.646;23.344;2024-03-23T03:11:25;94627.81;;;1.59;100.00
12219;BME280;6172;42.646;23.344;2024-03-23T03:13:51;94630.41;;;1.52;100.00
12219;BME280;6172;42.646;23.344;2024-03-23T03:16:19;94620.44;;;1.30;100.00
12219;BME280;6172;42.646;23.344;2024-03-23T03:18:45;94625.91;;;1.37;100.00
12219;BME280;6172;42.646;23.344;2024-03-23T03:21:13;94631.88;;;1.27;100.00
12219;BME280;6172;42.646;23.344;2024-03-23T03:23:39;94628.53;;;1.34;100.00
12219;BME280;6172;42.646;23.344;2024-03-23T03:26:06;94633.50;;;1.32;100.00
12219;BME280;6172;42.646;23.344;2024-03-23T03:28:32;94634.13;;;1.25;100.00
12219;BME280;6172;42.646;23.344;2024-03-23T03:31:00;94636.66;;;1.37;100.00
12219;BME280;6172;42.646;23.344;2024-03-23T03:33:27;94631.03;;;1.23;100.00
12219;BME280;6172;42.646;23.344;2024-03-23T03:35:54;94624.41;;;1.17;100.00
12219;BME280;6172;42.646;23.344;2024-03-23T03:38:21;94637.94;;;1.24;100.00
12219;BME280;6172;42.646;23.344;2024-03-23T03:40:48;94632.72;;;1.31;100.00
12219;BME280;6172;42.646;23.344;2024-03-23T03:43:14;94626.28;;;1.36;100.00
12219;BME280;6172;42.646;23.344;2024-03-23T03:45:41;94633.53;;;1.35;100.00
12219;BME280;6172;42.646;23.344;2024-03-23T03:48:07;94641.31;;;1.40;100.00
12219;BME280;6172;42.646;23.344;2024-03-23T03:50:36;94627.66;;;1.49;100.00
12219;BME280;6172;42.646;23.344;2024-03-23T03:53:02;94635.59;;;1.42;100.00
12219;BME280;6172;42.646;23.344;2024-03-23T03:55:29;94632.47;;;1.40;100.00
12219;BME280;6172;42.646;23.344;2024-03-23T03:57:54;94639.75;;;1.39;100.00
12219;BME280;6172;42.646;23.344;2024-03-23T04:00:21;94634.44;;;1.43;100.00
12219;BME280;6172;42.646;23.344;2024-03-23T04:02:47;94631.84;;;1.46;100.00
12219;BME280;6172;42.646;23.344;2024-03-23T04:05:14;94635.41;;;1.54;100.00
12219;BME280;6172;42.646;23.344;2024-03-23T04:07:42;94633.06;;;1.52;100.00
12219;BME280;6172;42.646;23.344;2024-03-23T04:10:09;94633.50;;;1.32;100.00
12219;BME280;6172;42.646;23.344;2024-03-23T04:12:35;94633.66;;;1.01;100.00
12219;BME280;6172;42.646;23.344;2024-03-23T04:15:02;94635.72;;;0.69;100.00
12219;BME280;6172;42.646;23.344;2024-03-23T04:17:30;94641.69;;;0.81;100.00
12219;BME280;6172;42.646;23.344;2024-03-23T04:19:59;94646.59;;;0.95;100.00
12219;BME280;6172;42.646;23.344;2024-03-23T04:22:26;94646.81;;;1.06;100.00
12219;BME280;6172;42.646;23.344;2024-03-23T04:28:32;94645.03;;;0.94;100.00
12219;BME280;6172;42.646;23.344;2024-03-23T04:31:03;94648.44;;;1.10;100.00
12219;BME280;6172;42.646;23.344;2024-03-23T04:33:29;94639.19;;;0.89;100.00
12219;BME280;6172;42.646;23.344;2024-03-23T04:35:56;94643.19;;;0.98;100.00
12219;BME280;6172;42.646;23.344;2024-03-23T04:38:22;94638.19;;;0.97;100.00
12219;BME280;6172;42.646;23.344;2024-03-23T04:40:54;94652.66;;;0.92;100.00
12219;BME280;6172;42.646;23.344;2024-03-23T04:43:21;94647.28;;;0.92;100.00
12219;BME280;6172;42.646;23.344;2024-03-23T04:45:50;94652.59;;;0.89;100.00
12219;BME280;6172;42.646;23.344;2024-03-23T04:48:19;94649.59;;;0.74;100.00
12219;BME280;6172;42.646;23.344;2024-03-23T04:50:47;94653.31;;;0.86;100.00
12219;BME280;6172;42.646;23.344;2024-03-23T04:53:14;94647.03;;;0.97;100.00
12219;BME280;6172;42.646;23.344;2024-03-23T04:55:41;94663.25;;;1.04;100.00
12219;BME280;6172;42.646;23.344;2024-03-23T04:58:08;94660.56;;;1.04;100.00
12219;BME280;6172;42.646;23.344;2024-03-23T05:00:34;94659.50;;;1.09;100.00
12219;BME280;6172;42.646;23.344;2024-03-23T05:03:03;94666.00;;;1.08;100.00
12219;BME280;6172;42.646;23.344;2024-03-23T05:05:29;94663.19;;;1.01;100.00
12219;BME280;6172;42.646;23.344;2024-03-23T05:07:57;94663.09;;;0.78;100.00
12219;BME280;6172;42.646;23.344;2024-03-23T05:10:23;94662.81;;;1.02;100.00
12219;BME280;6172;42.646;23.344;2024-03-23T05:12:50;94659.66;;;1.16;100.00
12219;BME280;6172;42.646;23.344;2024-03-23T05:15:17;94657.00;;;1.19;100.00
12219;BME280;6172;42.646;23.344;2024-03-23T05:17:44;94646.13;;;1.31;100.00
12219;BME280;6172;42.646;23.344;2024-03-23T05:20:11;94654.03;;;1.43;100.00
12219;BME280;6172;42.646;23.344;2024-03-23T05:22:40;94651.41;;;1.47;100.00
12219;BME280;6172;42.646;23.344;2024-03-23T05:25:07;94648.31;;;1.45;100.00
12219;BME280;6172;42.646;23.344;2024-03-23T05:27:35;94643.53;;;1.57;100.00
12219;BME280;6172;42.646;23.344;2024-03-23T05:30:02;94647.38;;;1.56;100.00
12219;BME280;6172;42.646;23.344;2024-03-23T05:32:29;94640.31;;;1.71;100.00
12219;BME280;6172;42.646;23.344;2024-03-23T05:34:55;94644.47;;;1.91;100.00
12219;BME280;6172;42.646;23.344;2024-03-23T05:37:24;94639.53;;;1.93;100.00
12219;BME280;6172;42.646;23.344;2024-03-23T05:39:50;94649.75;;;2.06;100.00
12219;BME280;6172;42.646;23.344;2024-03-23T05:42:17;94649.13;;;2.42;100.00
12219;BME280;6172;42.646;23.344;2024-03-23T05:44:43;94636.63;;;3.16;100.00
12219;BME280;6172;42.646;23.344;2024-03-23T05:47:11;94633.09;;;4.93;100.00
12219;BME280;6172;42.646;23.344;2024-03-23T05:49:38;94635.25;;;6.93;83.04
12219;BME280;6172;42.646;23.344;2024-03-23T05:52:07;94627.19;;;8.27;68.30
12219;BME280;6172;42.646;23.344;2024-03-23T05:54:35;94629.75;;;7.96;65.10
12219;BME280;6172;42.646;23.344;2024-03-23T05:57:02;94620.13;;;10.34;57.76
12219;BME280;6172;42.646;23.344;2024-03-23T05:59:28;94620.88;;;11.62;50.03
12219;BME280;6172;42.646;23.344;2024-03-23T06:01:56;94617.28;;;12.36;45.95
12219;BME280;6172;42.646;23.344;2024-03-23T06:04:22;94615.34;;;13.71;41.51
12219;BME280;6172;42.646;23.344;2024-03-23T06:06:50;94614.81;;;13.76;41.77
12219;BME280;6172;42.646;23.344;2024-03-23T06:09:17;94601.47;;;14.53;38.94
12219;BME280;6172;42.646;23.344;2024-03-23T06:11:49;94611.31;;;14.88;38.10
12219;BME280;6172;42.646;23.344;2024-03-23T06:14:15;94603.44;;;14.65;38.90
12219;BME280;6172;42.646;23.344;2024-03-23T06:16:42;94607.53;;;15.07;38.57
12219;BME280;6172;42.646;23.344;2024-03-23T06:19:08;94610.72;;;14.34;39.09
12219;BME280;6172;42.646;23.344;2024-03-23T06:21:35;94610.69;;;14.09;39.41
12219;BME280;6172;42.646;23.344;2024-03-23T06:24:03;94605.72;;;12.13;42.13
12219;BME280;6172;42.646;23.344;2024-03-23T06:26:30;94603.19;;;13.72;41.74
12219;BME280;6172;42.646;23.344;2024-03-23T06:28:57;94608.66;;;12.38;42.96
12219;BME280;6172;42.646;23.344;2024-03-23T06:31:24;94605.09;;;12.57;42.73
12219;BME280;6172;42.646;23.344;2024-03-23T06:33:51;94612.22;;;11.67;43.88
12219;BME280;6172;42.646;23.344;2024-03-23T06:36:18;94613.56;;;11.59;45.45
12219;BME280;6172;42.646;23.344;2024-03-23T06:38:45;94620.41;;;11.67;45.53
12219;BME280;6172;42.646;23.344;2024-03-23T06:41:12;94611.34;;;12.06;45.13
12219;BME280;6172;42.646;23.344;2024-03-23T06:43:38;94617.53;;;12.42;44.10
12219;BME280;6172;42.646;23.344;2024-03-23T06:46:06;94618.59;;;11.96;45.71
12219;BME280;6172;42.646;23.344;2024-03-23T06:48:32;94619.25;;;11.84;44.97
12219;BME280;6172;42.646;23.344;2024-03-23T06:51:00;94617.19;;;12.24;43.90
12219;BME280;6172;42.646;23.344;2024-03-23T06:53:26;94613.47;;;13.11;42.13
12219;BME280;6172;42.646;23.344;2024-03-23T06:55:53;94604.13;;;12.80;43.03
12219;BME280;6172;42.646;23.344;2024-03-23T06:58:38;94606.47;;;12.65;42.40
12219;BME280;6172;42.646;23.344;2024-03-23T07:01:08;94602.59;;;12.30;43.53
12219;BME280;6172;42.646;23.344;2024-03-23T07:03:34;94610.22;;;12.87;43.28
12219;BME280;6172;42.646;23.344;2024-03-23T07:06:02;94602.25;;;13.21;42.70
12219;BME280;6172;42.646;23.344;2024-03-23T07:08:28;94597.16;;;13.07;41.73
12219;BME280;6172;42.646;23.344;2024-03-23T07:10:55;94582.31;;;14.03;40.44
12219;BME280;6172;42.646;23.344;2024-03-23T07:13:21;94589.38;;;13.34;41.28
12219;BME280;6172;42.646;23.344;2024-03-23T07:15:52;94587.66;;;13.12;41.64
12219;BME280;6172;42.646;23.344;2024-03-23T07:18:20;94578.81;;;13.61;40.93
12219;BME280;6172;42.646;23.344;2024-03-23T07:20:52;94588.66;;;12.73;41.18
12219;BME280;6172;42.646;23.344;2024-03-23T07:23:18;94591.69;;;13.07;41.60
12219;BME280;6172;42.646;23.344;2024-03-23T07:25:56;94581.69;;;13.58;39.97
12219;BME280;6172;42.646;23.344;2024-03-23T07:28:22;94579.25;;;13.60;39.97
12219;BME280;6172;42.646;23.344;2024-03-23T07:31:02;94581.19;;;13.47;40.34
12219;BME280;6172;42.646;23.344;2024-03-23T07:33:29;94585.78;;;13.37;40.16
12219;BME280;6172;42.646;23.344;2024-03-23T07:35:56;94571.72;;;13.23;40.04
12219;BME280;6172;42.646;23.344;2024-03-23T07:38:23;94577.78;;;13.30;39.23
12219;BME280;6172;42.646;23.344;2024-03-23T07:40:50;94568.22;;;13.22;39.97
12219;BME280;6172;42.646;23.344;2024-03-23T07:43:20;94569.81;;;13.48;38.59
12219;BME280;6172;42.646;23.344;2024-03-23T07:45:51;94574.31;;;13.14;38.27
12219;BME280;6172;42.646;23.344;2024-03-23T07:48:18;94561.03;;;13.41;39.11
12219;BME280;6172;42.646;23.344;2024-03-23T07:50:56;94565.19;;;13.74;39.18
12219;BME280;6172;42.646;23.344;2024-03-23T07:53:30;94567.81;;;13.77;39.33
12219;BME280;6172;42.646;23.344;2024-03-23T07:55:59;94567.47;;;13.22;39.31
12219;BME280;6172;42.646;23.344;2024-03-23T07:58:26;94561.22;;;13.34;39.24
12219;BME280;6172;42.646;23.344;2024-03-23T08:00:54;94564.53;;;13.70;38.75
12219;BME280;6172;42.646;23.344;2024-03-23T08:03:20;94564.94;;;13.27;39.54
12219;BME280;6172;42.646;23.344;2024-03-23T08:05:49;94552.94;;;14.16;38.31
12219;BME280;6172;42.646;23.344;2024-03-23T08:08:15;94556.22;;;13.98;37.97
12219;BME280;6172;42.646;23.344;2024-03-23T08:10:50;94566.97;;;13.93;37.83
12219;BME280;6172;42.646;23.344;2024-03-23T08:13:19;94563.44;;;13.39;38.85
12219;BME280;6172;42.646;23.344;2024-03-23T08:15:47;94560.31;;;13.65;38.64
12219;BME280;6172;42.646;23.344;2024-03-23T08:18:14;94564.63;;;12.97;40.13
12219;BME280;6172;42.646;23.344;2024-03-23T08:20:41;94563.31;;;13.71;39.59
12219;BME280;6172;42.646;23.344;2024-03-23T08:23:10;94561.81;;;13.54;38.95
12219;BME280;6172;42.646;23.344;2024-03-23T08:25:36;94546.22;;;14.17;37.79
12219;BME280;6172;42.646;23.344;2024-03-23T08:28:03;94549.53;;;14.12;37.49
12219;BME280;6172;42.646;23.344;2024-03-23T08:30:29;94552.03;;;14.44;37.76
12219;BME280;6172;42.646;23.344;2024-03-23T08:32:56;94545.53;;;13.63;39.15
12219;BME280;6172;42.646;23.344;2024-03-23T08:35:23;94550.63;;;14.02;39.04
12219;BME280;6172;42.646;23.344;2024-03-23T08:37:50;94551.50;;;14.36;38.04
12219;BME280;6172;42.646;23.344;2024-03-23T08:40:17;94551.34;;;13.65;38.21
12219;BME280;6172;42.646;23.344;2024-03-23T08:42:46;94538.03;;;12.36;41.00
12219;BME280;6172;42.646;23.344;2024-03-23T08:45:12;94540.63;;;13.29;39.70
12219;BME280;6172;42.646;23.344;2024-03-23T08:47:39;94541.59;;;13.10;40.26
12219;BME280;6172;42.646;23.344;2024-03-23T08:50:05;94529.13;;;14.13;38.88
12219;BME280;6172;42.646;23.344;2024-03-23T08:52:33;94521.00;;;14.68;38.27
12219;BME280;6172;42.646;23.344;2024-03-23T08:54:59;94521.56;;;14.76;36.78
12219;BME280;6172;42.646;23.344;2024-03-23T08:57:28;94518.38;;;14.18;37.05
12219;BME280;6172;42.646;23.344;2024-03-23T08:59:54;94520.25;;;14.68;36.53
12219;BME280;6172;42.646;23.344;2024-03-23T09:02:21;94512.09;;;14.89;36.29
12219;BME280;6172;42.646;23.344;2024-03-23T09:04:47;94519.81;;;14.82;36.16
12219;BME280;6172;42.646;23.344;2024-03-23T09:07:14;94507.25;;;15.37;35.44
12219;BME280;6172;42.646;23.344;2024-03-23T09:09:40;94509.78;;;14.88;36.64
12219;BME280;6172;42.646;23.344;2024-03-23T09:12:07;94497.22;;;14.99;36.16
12219;BME280;6172;42.646;23.344;2024-03-23T09:14:34;94493.25;;;15.44;35.84
12219;BME280;6172;42.646;23.344;2024-03-23T09:17:02;94493.09;;;15.69;36.08
12219;BME280;6172;42.646;23.344;2024-03-23T09:19:29;94489.41;;;16.02;34.38
12219;BME280;6172;42.646;23.344;2024-03-23T09:21:56;94489.66;;;15.77;34.83
12219;BME280;6172;42.646;23.344;2024-03-23T09:24:22;94486.63;;;15.84;34.88
12219;BME280;6172;42.646;23.344;2024-03-23T09:26:51;94473.53;;;15.67;35.38
12219;BME280;6172;42.646;23.344;2024-03-23T09:29:17;94468.09;;;16.15;34.52
12219;BME280;6172;42.646;23.344;2024-03-23T09:31:46;94467.44;;;15.93;35.09
12219;BME280;6172;42.646;23.344;2024-03-23T09:34:12;94462.38;;;15.92;34.91
12219;BME280;6172;42.646;23.344;2024-03-23T09:36:39;94457.66;;;15.71;35.07
12219;BME280;6172;42.646;23.344;2024-03-23T09:39:06;94461.03;;;16.05;34.75
12219;BME280;6172;42.646;23.344;2024-03-23T09:41:35;94447.81;;;16.22;33.97
12219;BME280;6172;42.646;23.344;2024-03-23T09:44:08;94440.88;;;16.08;34.47
12219;BME280;6172;42.646;23.344;2024-03-23T09:46:46;94448.06;;;16.06;33.84
12219;BME280;6172;42.646;23.344;2024-03-23T09:49:12;94444.09;;;15.98;33.63
12219;BME280;6172;42.646;23.344;2024-03-23T09:51:39;94441.13;;;16.41;33.57
12219;BME280;6172;42.646;23.344;2024-03-23T09:54:14;94429.94;;;16.35;33.44
12219;BME280;6172;42.646;23.344;2024-03-23T09:56:43;94432.97;;;16.28;33.84
12219;BME280;6172;42.646;23.344;2024-03-23T09:59:09;94433.00;;;16.64;33.30
12219;BME280;6172;42.646;23.344;2024-03-23T10:01:39;94425.28;;;15.96;33.56
12219;BME280;6172;42.646;23.344;2024-03-23T10:04:36;94418.41;;;16.01;33.10
12219;BME280;6172;42.646;23.344;2024-03-23T10:07:11;94414.03;;;16.21;33.37
12219;BME280;6172;42.646;23.344;2024-03-23T10:09:37;94413.00;;;16.73;32.28
12219;BME280;6172;42.646;23.344;2024-03-23T10:12:09;94405.50;;;16.55;32.20
12219;BME280;6172;42.646;23.344;2024-03-23T10:14:36;94399.44;;;16.69;32.33
12219;BME280;6172;42.646;23.344;2024-03-23T10:17:15;94396.66;;;16.78;31.72
12219;BME280;6172;42.646;23.344;2024-03-23T10:19:45;94392.22;;;16.72;32.06
12219;BME280;6172;42.646;23.344;2024-03-23T10:22:14;94388.97;;;17.00;32.19
12219;BME280;6172;42.646;23.344;2024-03-23T10:24:41;94378.28;;;16.75;32.53
12219;BME280;6172;42.646;23.344;2024-03-23T10:27:08;94374.63;;;16.78;32.62
12219;BME280;6172;42.646;23.344;2024-03-23T10:29:34;94380.38;;;17.16;31.71
12219;BME280;6172;42.646;23.344;2024-03-23T10:32:08;94373.19;;;17.19;31.17
12219;BME280;6172;42.646;23.344;2024-03-23T10:34:39;94367.22;;;17.20;31.25
12219;BME280;6172;42.646;23.344;2024-03-23T10:37:09;94363.53;;;17.23;32.32
12219;BME280;6172;42.646;23.344;2024-03-23T10:39:36;94363.38;;;17.27;30.81
12219;BME280;6172;42.646;23.344;2024-03-23T10:42:04;94363.94;;;16.80;31.21
12219;BME280;6172;42.646;23.344;2024-03-23T10:44:31;94351.63;;;17.08;32.00
12219;BME280;6172;42.646;23.344;2024-03-23T10:46:59;94346.31;;;17.47;31.39
12219;BME280;6172;42.646;23.344;2024-03-23T10:49:26;94342.03;;;17.04;30.95
12219;BME280;6172;42.646;23.344;2024-03-23T10:51:56;94333.91;;;17.09;30.78
12219;BME280;6172;42.646;23.344;2024-03-23T10:54:24;94329.94;;;17.43;30.74
12219;BME280;6172;42.646;23.344;2024-03-23T10:56:55;94315.91;;;16.90;31.66
12219;BME280;6172;42.646;23.344;2024-03-23T10:59:22;94320.38;;;16.43;31.81
12219;BME280;6172;42.646;23.344;2024-03-23T11:01:56;94315.34;;;15.87;34.34
12219;BME280;6172;42.646;23.344;2024-03-23T11:04:32;94309.22;;;16.28;32.84
12219;BME280;6172;42.646;23.344;2024-03-23T11:07:00;94295.44;;;16.55;32.23
12219;BME280;6172;42.646;23.344;2024-03-23T11:09:39;94284.97;;;17.37;31.57
12219;BME280;6172;42.646;23.344;2024-03-23T11:12:40;94287.41;;;17.44;30.93
12219;BME280;6172;42.646;23.344;2024-03-23T11:15:11;94281.13;;;17.11;30.54
12219;BME280;6172;42.646;23.344;2024-03-23T11:17:38;94278.66;;;16.62;30.60
12219;BME280;6172;42.646;23.344;2024-03-23T11:20:06;94273.44;;;16.82;31.24
12219;BME280;6172;42.646;23.344;2024-03-23T11:22:41;94265.63;;;17.22;30.57
12219;BME280;6172;42.646;23.344;2024-03-23T11:25:17;94264.28;;;16.67;30.87
12219;BME280;6172;42.646;23.344;2024-03-23T11:27:44;94255.75;;;16.47;31.17
12219;BME280;6172;42.646;23.344;2024-03-23T11:30:13;94266.66;;;16.92;30.10
12219;BME280;6172;42.646;23.344;2024-03-23T11:32:39;94257.63;;;17.24;31.39
12219;BME280;6172;42.646;23.344;2024-03-23T11:35:07;94252.97;;;17.40;30.43
12219;BME280;6172;42.646;23.344;2024-03-23T11:37:38;94255.28;;;17.65;29.37
12219;BME280;6172;42.646;23.344;2024-03-23T11:40:18;94245.88;;;17.24;29.25
12219;BME280;6172;42.646;23.344;2024-03-23T11:42:45;94234.66;;;16.44;31.37
12219;BME280;6172;42.646;23.344;2024-03-23T11:45:13;94235.03;;;17.20;30.34
12219;BME280;6172;42.646;23.344;2024-03-23T11:47:40;94208.88;;;17.16;30.26
12219;BME280;6172;42.646;23.344;2024-03-23T11:50:07;94213.59;;;16.92;30.91
12219;BME280;6172;42.646;23.344;2024-03-23T11:52:33;94221.22;;;17.77;29.44
12219;BME280;6172;42.646;23.344;2024-03-23T11:55:06;94206.78;;;18.20;29.36
12219;BME280;6172;42.646;23.344;2024-03-23T11:57:37;94196.94;;;17.90;30.23
12219;BME280;6172;42.646;23.344;2024-03-23T12:00:20;94184.31;;;17.60;30.12
12219;BME280;6172;42.646;23.344;2024-03-23T12:02:47;94190.53;;;18.51;29.89
12219;BME280;6172;42.646;23.344;2024-03-23T12:05:17;94196.94;;;17.90;29.80
12219;BME280;6172;42.646;23.344;2024-03-23T12:07:43;94192.63;;;16.94;30.08
12219;BME280;6172;42.646;23.344;2024-03-23T12:10:11;94175.22;;;16.88;30.44
12219;BME280;6172;42.646;23.344;2024-03-23T12:12:41;94177.56;;;17.37;30.04
12219;BME280;6172;42.646;23.344;2024-03-23T12:15:10;94185.56;;;17.50;29.59
12219;BME280;6172;42.646;23.344;2024-03-23T12:17:38;94172.81;;;16.81;30.30
12219;BME280;6172;42.646;23.344;2024-03-23T12:20:06;94165.44;;;16.87;31.47
12219;BME280;6172;42.646;23.344;2024-03-23T12:22:32;94170.16;;;17.19;31.12
12219;BME280;6172;42.646;23.344;2024-03-23T12:25:01;94164.94;;;17.69;29.48
12219;BME280;6172;42.646;23.344;2024-03-23T12:27:27;94155.66;;;17.81;29.96
12219;BME280;6172;42.646;23.344;2024-03-23T12:29:55;94155.41;;;17.93;29.41
12219;BME280;6172;42.646;23.344;2024-03-23T12:32:22;94139.91;;;17.58;29.96
12219;BME280;6172;42.646;23.344;2024-03-23T12:34:49;94151.47;;;17.23;29.63
12219;BME280;6172;42.646;23.344;2024-03-23T12:37:16;94146.00;;;17.14;29.91
12219;BME280;6172;42.646;23.344;2024-03-23T12:39:44;94138.88;;;17.08;30.80
12219;BME280;6172;42.646;23.344;2024-03-23T12:42:10;94137.16;;;17.10;30.47
12219;BME280;6172;42.646;23.344;2024-03-23T12:44:41;94136.06;;;16.10;30.79
12219;BME280;6172;42.646;23.344;2024-03-23T12:47:08;94138.50;;;16.68;29.79
12219;BME280;6172;42.646;23.344;2024-03-23T12:49:36;94124.84;;;16.97;29.39
12219;BME280;6172;42.646;23.344;2024-03-23T12:52:02;94116.06;;;17.31;28.72
12219;BME280;6172;42.646;23.344;2024-03-23T12:54:30;94123.63;;;17.69;29.25
12219;BME280;6172;42.646;23.344;2024-03-23T12:56:57;94114.38;;;17.57;27.59
12219;BME280;6172;42.646;23.344;2024-03-23T12:59:23;94106.53;;;17.94;28.19
12219;BME280;6172;42.646;23.344;2024-03-23T13:01:51;94098.47;;;18.05;27.22
12219;BME280;6172;42.646;23.344;2024-03-23T13:04:20;94091.56;;;17.57;26.71
12219;BME280;6172;42.646;23.344;2024-03-23T13:06:47;94091.38;;;17.75;27.17
12219;BME280;6172;42.646;23.344;2024-03-23T13:09:13;94089.03;;;17.97;24.79
12219;BME280;6172;42.646;23.344;2024-03-23T13:11:40;94086.94;;;17.77;25.30
12219;BME280;6172;42.646;23.344;2024-03-23T13:14:07;94084.28;;;17.97;25.38
12219;BME280;6172;42.646;23.344;2024-03-23T13:16:36;94090.56;;;17.83;25.10
12219;BME280;6172;42.646;23.344;2024-03-23T13:19:03;94073.81;;;17.87;25.50
12219;BME280;6172;42.646;23.344;2024-03-23T13:21:31;94068.00;;;17.85;25.92
12219;BME280;6172;42.646;23.344;2024-03-23T13:24:04;94072.22;;;17.80;26.41
12219;BME280;6172;42.646;23.344;2024-03-23T13:26:31;94066.69;;;17.80;25.98
12219;BME280;6172;42.646;23.344;2024-03-23T13:28:57;94068.03;;;17.70;25.61
12219;BME280;6172;42.646;23.344;2024-03-23T13:31:24;94065.94;;;17.80;26.86
12219;BME280;6172;42.646;23.344;2024-03-23T13:33:50;94059.47;;;17.97;25.88
12219;BME280;6172;42.646;23.344;2024-03-23T13:36:19;94057.53;;;18.18;23.77
12219;BME280;6172;42.646;23.344;2024-03-23T13:38:47;94057.53;;;18.18;23.93
12219;BME280;6172;42.646;23.344;2024-03-23T13:41:13;94059.84;;;17.76;25.93
12219;BME280;6172;42.646;23.344;2024-03-23T13:43:40;94047.50;;;17.86;25.80
12219;BME280;6172;42.646;23.344;2024-03-23T13:46:06;94058.28;;;17.46;24.62
12219;BME280;6172;42.646;23.344;2024-03-23T13:48:36;94042.38;;;17.79;24.21
12219;BME280;6172;42.646;23.344;2024-03-23T13:51:03;94045.00;;;17.88;23.75
12219;BME280;6172;42.646;23.344;2024-03-23T13:53:31;94042.59;;;17.52;25.31
12219;BME280;6172;42.646;23.344;2024-03-23T13:56:00;94037.50;;;17.74;23.77
12219;BME280;6172;42.646;23.344;2024-03-23T13:58:28;94030.28;;;17.76;24.84
12219;BME280;6172;42.646;23.344;2024-03-23T14:00:56;94030.34;;;17.96;25.75